createdAt,value
2022-10-24T00:02:10.567Z,3.70
2022-10-24T00:04:42.946Z,3.30
2022-10-24T00:07:17.173Z,3.30
2022-10-24T00:09:51.268Z,3.00
2022-10-24T00:14:59.200Z,3.10
2022-10-24T00:17:30.462Z,3.40
2022-10-24T00:20:02.831Z,3.40
2022-10-24T00:22:34.089Z,2.80
2022-10-24T00:25:05.434Z,3.60
2022-10-24T00:27:37.981Z,3.10
2022-10-24T00:30:10.980Z,3.50
2022-10-24T00:32:42.506Z,3.70
2022-10-24T00:35:14.530Z,3.60
2022-10-24T00:37:46.063Z,3.10
2022-10-24T00:40:21.687Z,3.40
2022-10-24T00:42:52.969Z,3.60
2022-10-24T00:45:50.740Z,3.60
2022-10-24T00:48:27.374Z,3.40
2022-10-24T00:51:02.122Z,3.30
2022-10-24T00:53:36.821Z,3.40
2022-10-24T00:56:09.956Z,3.50
2022-10-24T00:58:42.888Z,3.40
2022-10-24T01:01:14.608Z,3.20
2022-10-24T01:03:46.061Z,3.40
2022-10-24T01:06:35.139Z,3.60
2022-10-24T01:09:20.631Z,4.30
2022-10-24T01:12:04.427Z,3.60
2022-10-24T01:14:47.207Z,3.90
2022-10-24T01:17:24.071Z,3.30
2022-10-24T01:20:18.199Z,3.20
2022-10-24T01:23:05.585Z,3.30
2022-10-24T01:25:45.275Z,3.40
2022-10-24T01:28:20.261Z,3.80
2022-10-24T01:30:58.239Z,2.90
2022-10-24T01:33:34.943Z,3.50
2022-10-24T01:36:12.348Z,3.30
2022-10-24T01:38:47.793Z,3.30
2022-10-24T01:41:24.889Z,2.90
2022-10-24T01:44:03.260Z,3.30
2022-10-24T01:46:39.841Z,2.60
2022-10-24T01:49:15.236Z,3.30
2022-10-24T01:51:48.497Z,3.30
2022-10-24T01:54:23.146Z,2.80
2022-10-24T01:56:54.327Z,3.20
2022-10-24T01:59:46.860Z,2.80
2022-10-24T02:02:22.775Z,2.90
2022-10-24T02:04:58.255Z,2.80
2022-10-24T02:07:31.718Z,3.40
2022-10-24T02:10:09.292Z,2.60
2022-10-24T02:12:47.929Z,3.80
2022-10-24T02:15:25.632Z,3.90
2022-10-24T02:17:58.290Z,3.40
2022-10-24T02:20:34.916Z,2.90
2022-10-24T02:23:14.160Z,3.10
2022-10-24T02:25:49.626Z,3.20
2022-10-24T02:28:24.535Z,3.20
2022-10-24T02:31:02.282Z,3.10
2022-10-24T02:33:35.703Z,2.60
2022-10-24T02:36:09.120Z,3.20
2022-10-24T02:38:43.256Z,3.20
2022-10-24T02:41:18.680Z,2.90
2022-10-24T02:43:52.898Z,3.00
2022-10-24T02:46:25.074Z,3.00
2022-10-24T02:49:00.291Z,3.10
2022-10-24T02:51:36.270Z,3.00
2022-10-24T02:54:08.239Z,3.70
2022-10-24T02:56:42.094Z,3.60
2022-10-24T02:59:13.406Z,2.70
2022-10-24T03:01:44.757Z,3.00
2022-10-24T03:04:15.890Z,2.90
2022-10-24T03:06:47.328Z,3.20
2022-10-24T03:09:18.552Z,3.40
2022-10-24T03:11:53.011Z,2.90
2022-10-24T03:14:24.274Z,3.20
2022-10-24T03:16:57.109Z,3.40
2022-10-24T03:19:28.217Z,2.90
2022-10-24T03:21:59.371Z,3.00
2022-10-24T03:24:43.499Z,2.90
2022-10-24T03:27:15.966Z,2.80
2022-10-24T03:29:47.167Z,2.80
2022-10-24T03:32:18.430Z,3.00
2022-10-24T03:34:49.575Z,2.90
2022-10-24T03:37:20.943Z,2.60
2022-10-24T03:39:52.158Z,2.80
2022-10-24T03:42:24.505Z,2.80
2022-10-24T03:44:55.817Z,2.80
2022-10-24T03:47:33.270Z,2.80
2022-10-24T03:50:05.114Z,3.40
2022-10-24T03:52:36.471Z,3.10
2022-10-24T03:55:08.455Z,3.50
2022-10-24T03:57:39.658Z,3.00
2022-10-24T04:00:15.402Z,2.90
2022-10-24T04:02:46.698Z,3.50
2022-10-24T04:05:21.109Z,3.00
2022-10-24T04:07:52.322Z,3.40
2022-10-24T04:10:23.606Z,2.60
2022-10-24T04:12:54.749Z,3.00
2022-10-24T04:15:26.055Z,2.70
2022-10-24T04:17:57.193Z,3.90
2022-10-24T04:20:28.452Z,2.80
2022-10-24T04:23:01.170Z,3.30
2022-10-24T04:25:35.223Z,3.20
2022-10-24T04:28:06.537Z,2.80
2022-10-24T04:30:37.798Z,3.20
2022-10-24T04:33:11.867Z,3.40
2022-10-24T04:35:48.154Z,3.00
2022-10-24T04:38:19.564Z,3.60
2022-10-24T04:40:52.984Z,2.90
2022-10-24T04:43:25.328Z,3.10
2022-10-24T04:45:56.621Z,3.00
2022-10-24T04:48:27.806Z,3.20
2022-10-24T04:51:01.970Z,4.30
2022-10-24T04:53:33.538Z,3.40
2022-10-24T04:56:05.122Z,3.20
2022-10-24T04:58:36.326Z,3.80
2022-10-24T05:01:07.821Z,4.00
2022-10-24T05:03:39.086Z,2.70
2022-10-24T05:06:10.703Z,3.00
2022-10-24T05:08:43.349Z,3.40
2022-10-24T05:11:17.288Z,3.40
2022-10-24T05:13:48.619Z,3.80
2022-10-24T05:16:19.796Z,3.20
2022-10-24T05:18:51.108Z,2.90
2022-10-24T05:21:22.344Z,3.00
2022-10-24T05:23:53.527Z,3.50
2022-10-24T05:26:24.634Z,3.40
2022-10-24T05:28:55.871Z,3.30
2022-10-24T05:31:27.608Z,3.40
2022-10-24T05:33:58.893Z,3.30
2022-10-24T05:36:30.068Z,3.50
2022-10-24T05:39:01.231Z,3.90
2022-10-24T05:41:32.781Z,3.00
2022-10-24T05:44:04.038Z,3.30
2022-10-24T05:46:37.813Z,4.30
2022-10-24T05:49:09.351Z,3.90
2022-10-24T05:51:40.483Z,4.00
2022-10-24T05:56:44.340Z,3.50
2022-10-24T05:59:16.023Z,2.80
2022-10-24T06:01:47.366Z,3.50
2022-10-24T06:04:18.623Z,2.70
2022-10-24T06:06:49.778Z,3.30
2022-10-24T06:09:23.376Z,2.80
2022-10-24T06:11:54.602Z,2.60
2022-10-24T06:14:25.826Z,2.90
2022-10-24T06:16:57.043Z,3.10
2022-10-24T06:19:28.401Z,2.90
2022-10-24T06:21:59.685Z,2.90
2022-10-24T06:24:30.923Z,2.50
2022-10-24T06:27:04.931Z,2.40
2022-10-24T06:29:36.615Z,2.50
2022-10-24T06:32:07.958Z,2.50
2022-10-24T06:34:39.341Z,2.30
2022-10-24T06:37:11.091Z,2.60
2022-10-24T06:39:42.196Z,2.80
2022-10-24T06:42:16.883Z,2.40
2022-10-24T06:44:48.066Z,2.20
2022-10-24T06:47:19.463Z,2.00
2022-10-24T06:49:50.644Z,2.60
2022-10-24T06:52:21.747Z,2.60
2022-10-24T06:54:53.175Z,2.40
2022-10-24T06:57:24.567Z,2.60
2022-10-24T06:59:55.767Z,2.60
2022-10-24T07:02:27.093Z,2.90
2022-10-24T07:04:59.915Z,2.70
2022-10-24T07:07:31.077Z,2.80
2022-10-24T07:10:02.239Z,2.30
2022-10-24T07:12:33.409Z,2.80
2022-10-24T07:15:04.855Z,2.60
2022-10-24T07:17:41.613Z,2.40
2022-10-24T07:20:15.264Z,1.90
2022-10-24T07:22:47.130Z,2.70
2022-10-24T07:25:18.848Z,2.60
2022-10-24T07:27:52.689Z,2.00
2022-10-24T07:30:24.144Z,2.20
2022-10-24T07:32:55.957Z,1.90
2022-10-24T07:35:27.302Z,2.50
2022-10-24T07:37:58.612Z,1.70
2022-10-24T07:40:29.886Z,2.00
2022-10-24T07:43:01.130Z,1.90
2022-10-24T07:45:32.436Z,1.90
2022-10-24T07:48:06.066Z,1.80
2022-10-24T07:50:42.974Z,1.90
2022-10-24T07:53:14.353Z,1.60
2022-10-24T07:55:46.593Z,1.80
2022-10-24T07:58:20.987Z,1.70
2022-10-24T08:00:52.532Z,1.40
2022-10-24T08:03:24.108Z,3.10
2022-10-24T08:05:57.298Z,2.40
2022-10-24T08:08:36.560Z,2.00
2022-10-24T08:11:12.649Z,1.90
2022-10-24T08:13:43.846Z,1.40
2022-10-24T08:16:18.085Z,1.60
2022-10-24T08:18:53.124Z,1.50
2022-10-24T08:21:25.664Z,1.20
2022-10-24T08:23:57.541Z,1.10
2022-10-24T08:26:29.270Z,1.50
2022-10-24T08:29:00.567Z,1.10
2022-10-24T08:31:31.821Z,1.20
2022-10-24T08:34:05.708Z,1.30
2022-10-24T08:36:37.739Z,1.70
2022-10-24T08:39:11.885Z,1.70
2022-10-24T08:41:48.129Z,1.90
2022-10-24T08:44:28.813Z,1.30
2022-10-24T08:47:18.062Z,2.30
2022-10-24T08:49:55.892Z,1.60
2022-10-24T08:52:32.615Z,2.50
2022-10-24T08:55:25.220Z,1.40
2022-10-24T08:58:02.279Z,1.30
2022-10-24T09:00:38.553Z,1.50
2022-10-24T09:03:43.567Z,1.60
2022-10-24T09:06:21.269Z,1.20
2022-10-24T09:08:56.049Z,1.20
2022-10-24T09:11:32.128Z,1.60
2022-10-24T09:14:08.887Z,1.60
2022-10-24T09:16:42.330Z,1.30
2022-10-24T09:19:18.145Z,1.50
2022-10-24T09:21:50.969Z,1.40
2022-10-24T09:24:34.207Z,1.50
2022-10-24T09:27:08.460Z,1.60
2022-10-24T09:29:40.083Z,2.00
2022-10-24T09:32:19.067Z,1.20
2022-10-24T09:34:50.631Z,1.30
2022-10-24T09:37:44.483Z,1.40
2022-10-24T09:40:24.761Z,0.90
2022-10-24T09:43:05.202Z,1.10
2022-10-24T09:45:47.151Z,0.80
2022-10-24T09:48:29.461Z,0.90
2022-10-24T09:51:03.930Z,1.00
2022-10-24T09:53:38.680Z,1.30
2022-10-24T09:56:16.011Z,1.10
2022-10-24T09:58:47.528Z,1.10
2022-10-24T10:01:24.045Z,1.00
2022-10-24T10:04:08.631Z,0.80
2022-10-24T10:06:47.202Z,0.80
2022-10-24T10:09:25.768Z,2.30
2022-10-24T10:12:03.664Z,1.00
2022-10-24T10:14:41.991Z,0.80
2022-10-24T10:17:23.941Z,0.90
2022-10-24T10:19:56.128Z,0.90
2022-10-24T10:22:29.752Z,1.00
2022-10-24T10:25:02.439Z,0.90
2022-10-24T10:27:38.377Z,1.00
2022-10-24T10:30:20.836Z,1.10
2022-10-24T10:33:02.372Z,0.90
2022-10-24T10:35:40.080Z,0.70
2022-10-24T10:38:21.738Z,0.70
2022-10-24T10:40:58.895Z,0.80
2022-10-24T10:43:40.094Z,1.00
2022-10-24T10:46:22.098Z,1.00
2022-10-24T10:49:04.165Z,0.80
2022-10-24T10:51:44.492Z,0.90
2022-10-24T10:54:39.034Z,0.80
2022-10-24T10:57:17.441Z,0.60
2022-10-24T10:59:58.672Z,0.80
2022-10-24T11:02:46.955Z,0.90
2022-10-24T11:09:34.787Z,0.70
2022-10-24T11:12:15.729Z,0.80
2022-10-24T11:14:51.700Z,0.80
2022-10-24T11:17:25.982Z,0.50
2022-10-24T11:20:17.776Z,0.70
2022-10-24T11:22:54.677Z,0.60
2022-10-24T11:25:31.592Z,0.60
2022-10-24T11:28:08.657Z,0.50
2022-10-24T11:30:47.545Z,0.40
2022-10-24T11:33:22.866Z,0.50
2022-10-24T11:40:05.238Z,0.40
2022-10-24T11:42:47.955Z,0.40
2022-10-24T11:45:21.586Z,0.50
2022-10-24T11:48:02.873Z,0.40
2022-10-24T11:50:40.270Z,0.50
2022-10-24T11:53:24.739Z,0.40
2022-10-24T11:56:04.008Z,0.60
2022-10-24T11:58:48.838Z,0.50
2022-10-24T12:01:50.092Z,0.30
2022-10-24T12:04:58.481Z,0.30
2022-10-24T12:08:14.395Z,0.60
2022-10-24T12:11:01.564Z,0.60
2022-10-24T12:13:48.829Z,0.80
2022-10-24T12:16:33.351Z,0.60
2022-10-24T12:19:07.573Z,0.50
2022-10-24T12:21:43.824Z,1.00
2022-10-24T12:24:28.133Z,0.70
2022-10-24T12:27:03.173Z,0.70
2022-10-24T12:29:37.183Z,0.50
2022-10-24T12:32:35.253Z,0.40
2022-10-24T12:35:31.770Z,0.60
2022-10-24T12:38:03.867Z,0.60
2022-10-24T12:40:55.656Z,0.70
2022-10-24T12:43:36.653Z,0.60
2022-10-24T12:46:38.431Z,0.70
2022-10-24T12:49:24.295Z,0.80
2022-10-24T12:51:58.081Z,0.80
2022-10-24T12:54:47.070Z,0.50
2022-10-24T12:57:32.367Z,0.40
2022-10-24T13:00:05.699Z,0.50
2022-10-24T13:02:56.158Z,0.40
2022-10-24T13:05:57.307Z,0.50
2022-10-24T13:08:45.354Z,0.50
2022-10-24T13:11:34.320Z,0.40
2022-10-24T13:14:28.955Z,1.10
2022-10-24T13:17:11.595Z,0.60
2022-10-24T13:19:43.109Z,0.50
2022-10-24T13:22:30.961Z,0.60
2022-10-24T13:25:19.121Z,0.70
2022-10-24T13:28:33.489Z,0.40
2022-10-24T13:31:40.017Z,0.40
2022-10-24T13:34:31.615Z,0.50
2022-10-24T13:37:46.608Z,0.50
2022-10-24T13:40:29.107Z,0.70
2022-10-24T13:43:07.519Z,0.80
2022-10-24T13:45:49.950Z,0.30
2022-10-24T13:48:24.784Z,0.70
2022-10-24T13:51:04.711Z,0.40
2022-10-24T13:53:50.405Z,0.80
2022-10-24T13:56:25.527Z,0.50
2022-10-24T13:59:32.621Z,0.60
2022-10-24T14:02:25.147Z,0.40
2022-10-24T14:05:02.512Z,0.70
2022-10-24T14:07:35.133Z,0.70
2022-10-24T14:10:12.429Z,1.10
2022-10-24T14:12:45.183Z,0.90
2022-10-24T14:15:41.695Z,0.80
2022-10-24T14:20:55.977Z,0.90
2022-10-24T14:23:41.948Z,1.00
2022-10-24T14:26:19.664Z,0.80
2022-10-24T14:29:27.884Z,0.40
2022-10-24T14:32:22.432Z,1.00
2022-10-24T14:35:03.142Z,14.20
2022-10-24T14:37:48.037Z,9.50
2022-10-24T14:40:25.809Z,3.20
2022-10-24T14:42:57.354Z,2.20
2022-10-24T14:45:31.927Z,0.90
2022-10-24T14:48:24.328Z,0.80
2022-10-24T14:50:55.735Z,0.90
2022-10-24T14:53:45.138Z,1.20
2022-10-24T14:56:29.597Z,4.20
2022-10-24T14:59:03.575Z,1.60
2022-10-24T15:01:35.555Z,2.60
2022-10-24T15:04:08.633Z,1.40
2022-10-24T15:06:42.792Z,1.00
2022-10-24T15:09:23.013Z,1.30
2022-10-24T15:12:03.756Z,1.10
2022-10-24T15:14:58.884Z,1.30
2022-10-24T15:17:43.880Z,1.20
2022-10-24T15:20:30.693Z,1.00
2022-10-24T15:23:12.687Z,1.40
2022-10-24T15:26:03.745Z,1.60
2022-10-24T15:28:47.745Z,1.10
2022-10-24T15:31:21.201Z,1.10
2022-10-24T15:33:52.518Z,1.50
2022-10-24T15:36:31.716Z,1.30
2022-10-24T15:39:09.531Z,0.80
2022-10-24T15:42:07.056Z,1.40
2022-10-24T15:49:07.324Z,0.90
2022-10-24T15:51:51.496Z,1.00
2022-10-24T15:54:27.439Z,1.30
2022-10-24T15:57:53.448Z,1.40
2022-10-24T16:00:34.637Z,2.20
2022-10-24T16:03:24.502Z,1.90
2022-10-24T16:06:13.154Z,1.80
2022-10-24T16:08:46.734Z,2.50
2022-10-24T16:11:22.537Z,1.90
2022-10-24T16:13:54.353Z,2.40
2022-10-24T16:16:53.729Z,3.10
2022-10-24T16:23:33.810Z,1.80
2022-10-24T16:26:10.244Z,1.90
2022-10-24T16:28:42.686Z,2.60
2022-10-24T16:31:18.887Z,4.60
2022-10-24T16:33:54.059Z,2.10
2022-10-24T16:36:33.425Z,1.70
2022-10-24T16:39:12.610Z,1.20
2022-10-24T16:41:49.806Z,1.40
2022-10-24T16:44:23.960Z,1.60
2022-10-24T16:47:20.379Z,1.70
2022-10-24T16:50:07.141Z,2.20
2022-10-24T16:52:39.515Z,2.00
2022-10-24T16:55:13.235Z,2.40
2022-10-24T16:57:44.870Z,3.50
2022-10-24T17:00:18.484Z,3.80
2022-10-24T17:02:52.096Z,2.00
2022-10-24T17:05:25.546Z,1.30
2022-10-24T17:07:59.348Z,1.90
2022-10-24T17:10:30.670Z,1.50
2022-10-24T17:13:02.113Z,1.90
2022-10-24T17:15:33.324Z,2.20
2022-10-24T17:18:05.162Z,2.00
2022-10-24T17:20:36.763Z,2.40
2022-10-24T17:23:08.706Z,1.70
2022-10-24T17:25:40.556Z,1.70
2022-10-24T17:28:13.214Z,2.20
2022-10-24T17:30:45.066Z,2.30
2022-10-24T17:33:17.026Z,2.20
2022-10-24T17:35:52.204Z,2.00
2022-10-24T17:38:35.940Z,2.10
2022-10-24T17:41:15.238Z,1.70
2022-10-24T17:43:47.333Z,1.90
2022-10-24T17:46:19.591Z,1.70
2022-10-24T17:48:51.207Z,1.70
2022-10-24T17:51:26.684Z,2.20
2022-10-24T17:53:57.828Z,2.70
2022-10-24T17:56:29.163Z,3.20
2022-10-24T17:59:00.543Z,3.30
2022-10-24T18:01:32.120Z,2.70
2022-10-24T18:04:03.518Z,2.60
2022-10-24T18:06:37.205Z,2.30
2022-10-24T18:09:10.617Z,1.80
2022-10-24T18:11:43.432Z,2.40
2022-10-24T18:14:18.811Z,2.20
2022-10-24T18:16:50.000Z,2.10
2022-10-24T18:19:21.254Z,2.70
2022-10-24T18:21:52.508Z,3.10
2022-10-24T18:24:23.700Z,3.80
2022-10-24T18:26:54.860Z,3.00
2022-10-24T18:29:26.533Z,2.50
2022-10-24T18:31:57.671Z,2.30
2022-10-24T18:34:29.121Z,3.10
2022-10-24T18:37:00.359Z,2.90
2022-10-24T18:39:31.478Z,2.50
2022-10-24T18:42:11.972Z,2.60
2022-10-24T18:44:48.729Z,2.50
2022-10-24T18:47:25.657Z,2.00
2022-10-24T18:49:58.705Z,3.10
2022-10-24T18:52:41.039Z,2.60
2022-10-24T18:55:18.683Z,2.20
2022-10-24T18:57:51.431Z,2.00
2022-10-24T19:00:25.425Z,3.00
2022-10-24T19:03:11.044Z,2.90
2022-10-24T19:05:47.941Z,2.40
2022-10-24T19:08:24.373Z,2.00
2022-10-24T19:10:57.131Z,2.00
2022-10-24T19:13:29.699Z,1.80
2022-10-24T19:16:04.227Z,2.00
2022-10-24T19:18:37.624Z,2.20
2022-10-24T19:21:09.450Z,2.20
2022-10-24T19:23:40.801Z,2.20
2022-10-24T19:26:14.856Z,2.20
2022-10-24T19:28:46.378Z,2.40
2022-10-24T19:31:18.324Z,2.90
2022-10-24T19:33:50.621Z,3.40
2022-10-24T19:36:23.000Z,2.90
2022-10-24T19:38:59.979Z,3.80
2022-10-24T19:41:31.582Z,4.00
2022-10-24T19:44:02.973Z,2.90
2022-10-24T19:46:34.864Z,2.90
2022-10-24T19:49:07.775Z,2.60
2022-10-24T19:51:39.097Z,2.60
2022-10-24T19:54:10.362Z,2.30
2022-10-24T19:56:42.811Z,2.00
2022-10-24T19:59:14.926Z,2.20
2022-10-24T20:01:46.184Z,2.40
2022-10-24T20:04:17.577Z,2.40
2022-10-24T20:06:49.063Z,2.50
2022-10-24T20:09:20.359Z,1.90
2022-10-24T20:11:51.797Z,1.70
2022-10-24T20:14:24.671Z,1.60
2022-10-24T20:16:56.058Z,2.00
2022-10-24T20:19:27.406Z,1.80
2022-10-24T20:22:02.299Z,1.70
2022-10-24T20:24:34.271Z,1.80
2022-10-24T20:29:39.563Z,1.80
2022-10-24T20:32:10.974Z,1.80
2022-10-24T20:34:44.930Z,1.90
2022-10-24T20:37:16.414Z,2.40
2022-10-24T20:39:47.917Z,2.70
2022-10-24T20:42:20.989Z,2.30
2022-10-24T20:44:55.195Z,2.00
2022-10-24T20:47:26.591Z,1.80
2022-10-24T20:49:58.130Z,2.20
2022-10-24T20:52:29.375Z,1.90
2022-10-24T20:55:00.699Z,2.00
2022-10-24T20:57:36.650Z,1.80
2022-10-24T21:00:14.528Z,2.30
2022-10-24T21:02:46.061Z,2.10
2022-10-24T21:05:18.209Z,1.80
2022-10-24T21:07:52.798Z,1.70
2022-10-24T21:10:24.320Z,1.70
2022-10-24T21:12:55.549Z,1.50
2022-10-24T21:15:26.998Z,2.00
2022-10-24T21:17:58.342Z,2.00
2022-10-24T21:20:29.631Z,1.60
2022-10-24T21:23:02.787Z,1.60
2022-10-24T21:25:34.118Z,1.60
2022-10-24T21:28:05.753Z,1.30
2022-10-24T21:30:37.073Z,1.40
2022-10-24T21:33:10.869Z,1.80
2022-10-24T21:35:43.165Z,1.80
2022-10-24T21:38:14.891Z,1.80
2022-10-24T21:40:46.700Z,1.30
2022-10-24T21:43:18.350Z,1.40
2022-10-24T21:45:49.668Z,2.30
2022-10-24T21:48:23.978Z,1.50
2022-10-24T21:50:56.050Z,1.90
2022-10-24T21:53:27.246Z,1.60
2022-10-24T21:56:05.046Z,1.40
2022-10-24T21:58:36.498Z,1.90
2022-10-24T22:01:14.991Z,1.60
2022-10-24T22:03:47.243Z,1.80
2022-10-24T22:06:20.133Z,2.20
2022-10-24T22:08:52.711Z,1.60
2022-10-24T22:11:26.495Z,1.60
2022-10-24T22:13:58.292Z,1.40
2022-10-24T22:16:31.452Z,1.50
2022-10-24T22:19:05.174Z,1.50
2022-10-24T22:21:38.536Z,1.60
2022-10-24T22:24:12.602Z,1.50
2022-10-24T22:26:44.955Z,2.40
2022-10-24T22:29:18.378Z,1.50
2022-10-24T22:31:51.616Z,1.80
2022-10-24T22:34:25.544Z,1.50
2022-10-24T22:37:12.955Z,1.90
2022-10-24T22:39:45.255Z,2.00
2022-10-24T22:42:20.206Z,1.80
2022-10-24T22:44:53.098Z,1.80
2022-10-24T22:47:49.388Z,1.80
2022-10-24T22:50:42.548Z,2.20
2022-10-24T22:53:15.205Z,1.80
2022-10-24T22:56:00.438Z,1.80
2022-10-24T22:58:34.354Z,2.10
2022-10-24T23:01:13.966Z,1.90
2022-10-24T23:04:00.885Z,2.10
2022-10-24T23:06:39.075Z,1.70
2022-10-24T23:09:12.106Z,2.30
2022-10-24T23:11:44.000Z,1.90
2022-10-24T23:16:59.342Z,2.60
2022-10-24T23:19:33.031Z,1.70
2022-10-24T23:22:13.172Z,2.20
2022-10-24T23:24:45.629Z,2.10
2022-10-24T23:27:31.262Z,1.90
2022-10-24T23:30:04.061Z,2.10
2022-10-24T23:32:38.713Z,1.90
2022-10-24T23:35:13.741Z,1.60
2022-10-24T23:37:48.207Z,1.60
2022-10-24T23:40:28.158Z,1.40
2022-10-24T23:43:00.589Z,1.70
2022-10-24T23:45:38.272Z,1.90
2022-10-24T23:48:28.571Z,1.80
2022-10-24T23:51:09.187Z,1.50
2022-10-24T23:53:50.618Z,1.80
2022-10-24T23:56:24.140Z,1.60
2022-10-24T23:59:00.546Z,1.90
